Time;durP1;ratioP1;P1;durP2;ratioP2;P2;SDS_P1;SDS_P2;PMS_P1;PMS_P2;Temp;Humidity;BMP_temperature;BMP_pressure;BME280_temperature;BME280_humidity;BME280_pressure;Samples;Min_cycle;Max_cycle;Signal;HPM_P1;HPM_P2
2023/12/26 00:02:17;;;;;;;12.00;7.00;;;;;;;9.49;69.28;99544.03;5093979;28;20194;-67
2023/12/26 00:04:45;;;;;;;11.20;8.13;;;;;;;9.50;69.04;99543.00;5093266;28;20230;-68
2023/12/26 00:07:12;;;;;;;13.93;8.00;;;;;;;9.45;69.86;99556.84;5093078;28;20196;-67
2023/12/26 00:09:39;;;;;;;15.60;8.50;;;;;;;9.39;69.19;99556.78;5093224;28;20199;-67
2023/12/26 00:12:07;;;;;;;11.37;7.47;;;;;;;9.44;69.48;99559.69;5093455;28;20725;-67
2023/12/26 00:14:34;;;;;;;11.23;7.87;;;;;;;9.45;69.18;99558.66;5093392;28;20195;-68
2023/12/26 00:17:00;;;;;;;11.70;7.80;;;;;;;9.40;69.58;99564.53;5093119;28;20199;-68
2023/12/26 00:19:27;;;;;;;12.80;7.80;;;;;;;9.42;69.98;99551.06;5093416;28;20194;-68
2023/12/26 00:21:55;;;;;;;15.83;8.20;;;;;;;9.39;70.05;99565.53;5093141;28;20190;-69
2023/12/26 00:24:22;;;;;;;11.07;8.83;;;;;;;9.36;69.59;99557.16;5091663;28;20202;-68
2023/12/26 00:26:49;;;;;;;13.60;8.50;;;;;;;9.35;70.03;99566.13;5093374;28;20215;-68
2023/12/26 00:29:15;;;;;;;12.73;8.00;;;;;;;9.32;69.70;99561.97;5093060;28;20199;-68
2023/12/26 00:31:43;;;;;;;13.77;8.53;;;;;;;9.30;70.39;99558.72;5093196;28;20192;-68
2023/12/26 00:34:10;;;;;;;14.80;8.70;;;;;;;9.30;70.06;99557.88;5093190;28;20322;-69
2023/12/26 00:36:37;;;;;;;12.83;8.30;;;;;;;9.30;70.27;99565.81;5088803;28;20308;-68
2023/12/26 00:39:06;;;;;;;13.03;8.70;;;;;;;9.30;69.54;99564.00;5072067;28;20245;-68
2023/12/26 00:41:32;;;;;;;9.23;7.93;;;;;;;9.29;69.56;99561.53;5071961;28;20192;-70
2023/12/26 00:43:59;;;;;;;10.67;8.10;;;;;;;9.31;70.12;99570.13;5071990;28;20203;-68
2023/12/26 00:46:26;;;;;;;10.37;7.77;;;;;;;9.24;70.12;99558.63;5071966;28;20245;-69
2023/12/26 00:48:53;;;;;;;14.83;8.90;;;;;;;9.28;70.30;99570.50;5072232;28;20192;-70
2023/12/26 00:51:20;;;;;;;11.97;8.70;;;;;;;9.28;69.88;99570.50;5072414;28;20201;-68
2023/12/26 00:53:46;;;;;;;10.83;8.77;;;;;;;9.21;70.27;99575.72;5072020;28;20191;-69
2023/12/26 00:56:15;;;;;;;23.83;9.27;;;;;;;9.08;70.93;99574.72;5072214;28;20196;-68
2023/12/26 00:58:41;;;;;;;13.70;9.23;;;;;;;8.88;71.42;99576.28;5071761;28;20303;-68
2023/12/26 01:01:08;;;;;;;11.00;8.07;;;;;;;8.84;71.49;99586.44;5071860;28;20196;-69
2023/12/26 01:03:35;;;;;;;11.37;8.27;;;;;;;8.86;71.53;99580.97;5072026;28;20283;-68
2023/12/26 01:06:02;;;;;;;15.77;8.87;;;;;;;8.87;71.73;99578.09;5072247;28;20227;-68
2023/12/26 01:08:29;;;;;;;14.77;8.97;;;;;;;8.88;71.44;99589.53;5072055;28;20192;-69
2023/12/26 01:10:55;;;;;;;16.97;9.13;;;;;;;8.87;71.66;99587.91;5072164;28;20195;-68
2023/12/26 01:13:24;;;;;;;13.90;8.27;;;;;;;8.85;72.54;99580.13;5071476;28;20196;-69
2023/12/26 01:15:51;;;;;;;10.80;8.67;;;;;;;8.84;72.15;99578.50;5075126;28;20217;-68
2023/12/26 01:18:18;;;;;;;10.20;8.80;;;;;;;8.83;72.08;99583.97;5091908;28;20713;-69
2023/12/26 01:20:45;;;;;;;14.07;9.53;;;;;;;8.83;72.17;99583.97;5092305;28;20296;-68
2023/12/26 01:23:11;;;;;;;11.87;9.00;;;;;;;8.84;72.73;99582.97;5092158;28;20646;-68
2023/12/26 01:25:38;;;;;;;9.70;7.50;;;;;;;8.84;71.58;99588.25;5091668;28;20222;-69
2023/12/26 01:28:05;;;;;;;12.67;8.30;;;;;;;8.83;71.95;99592.72;5091715;28;20236;-68
2023/12/26 01:30:35;;;;;;;11.10;9.20;;;;;;;8.83;71.43;99591.91;5091780;28;20663;-69
2023/12/26 01:33:02;;;;;;;12.43;8.03;;;;;;;8.80;71.71;99589.63;5091355;28;20612;-68
2023/12/26 01:35:28;;;;;;;11.93;8.83;;;;;;;8.76;72.01;99585.69;5091361;28;20548;-71
2023/12/26 01:37:56;;;;;;;13.90;9.03;;;;;;;8.66;73.10;99587.81;5091264;28;20221;-69
2023/12/26 01:40:23;;;;;;;19.53;8.93;;;;;;;8.39;72.56;99583.09;5091457;28;20286;-68
2023/12/26 01:42:49;;;;;;;12.00;9.70;;;;;;;8.40;73.97;99592.69;5091518;28;20196;-68
2023/12/26 01:45:16;;;;;;;14.27;8.60;;;;;;;8.31;73.95;99589.31;5091196;28;20219;-68
2023/12/26 01:47:49;;;;;;;13.80;8.20;;;;;;;8.14;74.67;99585.13;5091412;28;20199;-70
2023/12/26 01:50:16;;;;;;;18.10;9.50;;;;;;;8.06;74.59;99581.72;5091279;28;20647;-69
2023/12/26 01:52:43;;;;;;;10.07;8.50;;;;;;;8.14;74.77;99586.94;5091014;28;20199;-70
2023/12/26 01:55:13;;;;;;;24.87;9.43;;;;;;;8.12;75.05;99591.56;5091586;28;20221;-69
2023/12/26 01:57:41;;;;;;;16.77;9.93;;;;;;;8.14;74.71;99586.94;5090794;28;20544;-68
2023/12/26 02:00:09;;;;;;;19.03;10.20;;;;;;;8.14;74.83;99584.28;5091141;28;20194;-69
2023/12/26 02:02:35;;;;;;;20.73;10.27;;;;;;;8.15;74.64;99585.94;5091411;28;20279;-70
2023/12/26 02:05:04;;;;;;;19.50;9.53;;;;;;;8.13;74.72;99582.66;5091147;28;20240;-68
2023/12/26 02:07:31;;;;;;;21.87;10.30;;;;;;;8.13;75.20;99564.94;5091764;28;20814;-70
2023/12/26 02:09:59;;;;;;;16.27;9.57;;;;;;;8.12;75.29;99560.66;5091127;28;20567;-68
2023/12/26 02:12:25;;;;;;;19.30;9.03;;;;;;;8.11;75.48;99579.34;5091474;28;20278;-68
2023/12/26 02:14:52;;;;;;;18.40;9.80;;;;;;;8.03;75.71;99582.88;5091874;28;20198;-68
2023/12/26 02:17:23;;;;;;;19.60;9.17;;;;;;;8.04;76.11;99578.44;5091176;28;20223;-68
2023/12/26 02:19:50;;;;;;;17.73;9.73;;;;;;;8.05;75.57;99580.88;5091169;28;20231;-68
2023/12/26 02:22:18;;;;;;;19.00;9.87;;;;;;;8.04;75.48;99586.38;5091161;28;20663;-68
2023/12/26 02:24:47;;;;;;;18.77;9.60;;;;;;;7.99;74.77;99570.19;5091041;28;20191;-69
2023/12/26 02:27:19;;;;;;;20.80;9.47;;;;;;;7.99;75.62;99580.75;5090870;28;20629;-69
2023/12/26 02:29:48;;;;;;;13.17;8.93;;;;;;;7.97;75.54;99588.06;5091040;28;20223;-69
2023/12/26 02:32:19;;;;;;;19.63;9.83;;;;;;;7.96;75.95;99586.44;5090886;28;20230;-68
2023/12/26 02:34:47;;;;;;;18.77;9.90;;;;;;;7.95;75.72;99596.19;5090721;28;20680;-69
2023/12/26 02:37:14;;;;;;;19.37;9.47;;;;;;;7.96;75.96;99602.31;5090722;28;20195;-68
2023/12/26 02:39:43;;;;;;;18.63;10.13;;;;;;;7.97;75.63;99598.66;5091158;28;20194;-68
2023/12/26 02:42:11;;;;;;;12.33;9.30;;;;;;;7.97;75.67;99604.75;5091142;28;20245;-68
2023/12/26 02:44:38;;;;;;;12.83;9.50;;;;;;;7.99;76.12;99607.22;5091126;28;20187;-68
2023/12/26 02:47:05;;;;;;;12.77;9.63;;;;;;;7.97;75.91;99602.09;5090936;28;20238;-69
2023/12/26 02:49:32;;;;;;;15.67;10.40;;;;;;;7.95;75.78;99611.22;5094558;28;20188;-69
2023/12/26 02:51:59;;;;;;;13.50;8.60;;;;;;;7.81;76.51;99610.16;5094825;28;20191;-69
2023/12/26 02:54:25;;;;;;;8.60;7.70;;;;;;;7.78;76.92;99620.25;5094962;28;20199;-68
2023/12/26 02:56:52;;;;;;;13.43;9.17;;;;;;;7.78;75.74;99625.53;5094978;28;20195;-69
2023/12/26 02:59:20;;;;;;;14.23;9.20;;;;;;;7.77;76.10;99623.91;5095069;28;20206;-69
2023/12/26 03:01:48;;;;;;;12.03;8.90;;;;;;;7.78;75.72;99625.53;5095017;28;20616;-67
2023/12/26 03:04:15;;;;;;;12.57;9.20;;;;;;;7.77;75.70;99619.44;5094551;28;20244;-69
2023/12/26 03:06:42;;;;;;;16.23;9.60;;;;;;;7.72;76.35;99616.47;5094789;28;20223;-69
2023/12/26 03:09:09;;;;;;;16.77;9.37;;;;;;;7.71;77.07;99630.72;5094512;28;20191;-70
2023/12/26 03:11:36;;;;;;;17.57;10.23;;;;;;;7.64;76.46;99636.88;5094571;28;20195;-68
2023/12/26 03:14:02;;;;;;;16.00;10.07;;;;;;;7.59;77.32;99636.59;5094531;28;20195;-68
2023/12/26 03:16:31;;;;;;;17.53;11.53;;;;;;;7.39;77.94;99630.06;5094296;28;20658;-68
2023/12/26 03:18:57;;;;;;;15.60;11.50;;;;;;;7.51;77.94;99641.91;5094472;28;20194;-69
2023/12/26 03:21:24;;;;;;;17.80;11.03;;;;;;;7.54;77.56;99647.66;5094562;28;20198;-70
2023/12/26 03:23:51;;;;;;;17.53;12.37;;;;;;;7.57;78.16;99634.09;5094034;28;20195;-68
2023/12/26 03:26:18;;;;;;;11.50;10.03;;;;;;;7.58;77.28;99645.47;5094079;28;20227;-69
2023/12/26 03:28:44;;;;;;;14.40;10.13;;;;;;;7.58;77.33;99645.47;5094037;28;20679;-68
2023/12/26 03:31:11;;;;;;;15.17;10.43;;;;;;;7.49;77.67;99646.53;5093721;28;20195;-68
2023/12/26 03:33:39;;;;;;;18.60;12.27;;;;;;;7.31;78.03;99648.59;5093976;28;20272;-68
2023/12/26 03:36:08;;;;;;;20.40;13.57;;;;;;;7.11;79.72;99648.16;5093984;28;20562;-68
2023/12/26 03:38:36;;;;;;;19.40;12.50;;;;;;;7.02;80.56;99654.47;5073485;28;20687;-67
2023/12/26 03:41:03;;;;;;;15.50;11.97;;;;;;;7.09;79.30;99659.88;5073647;28;20192;-68
2023/12/26 03:43:29;;;;;;;17.47;11.50;;;;;;;7.16;79.90;99666.97;5073441;28;20656;-68
2023/12/26 03:45:56;;;;;;;22.67;13.00;;;;;;;7.21;79.29;99674.38;5073233;28;20777;-69
2023/12/26 03:48:23;;;;;;;21.77;14.00;;;;;;;7.23;79.55;99673.22;5073408;28;20609;-68
2023/12/26 03:50:51;;;;;;;23.13;14.03;;;;;;;7.28;79.55;99662.16;5073487;28;20660;-68
2023/12/26 03:53:18;;;;;;;15.03;12.57;;;;;;;7.30;79.41;99660.97;5073695;28;20297;-69
2023/12/26 03:55:46;;;;;;;18.30;12.53;;;;;;;7.24;78.83;99671.41;5073552;28;20199;-70
2023/12/26 03:58:13;;;;;;;15.30;11.73;;;;;;;7.23;79.64;99672.41;5073615;28;20588;-68
2023/12/26 04:00:40;;;;;;;16.30;12.70;;;;;;;7.21;79.12;99666.44;5072181;28;20583;-68
2023/12/26 04:03:07;;;;;;;19.67;12.80;;;;;;;7.15;80.00;99664.50;5073254;28;20206;-69
2023/12/26 04:05:33;;;;;;;19.23;13.10;;;;;;;7.05;79.93;99663.84;5072761;28;20196;-68
2023/12/26 04:08:02;;;;;;;19.10;12.97;;;;;;;7.08;80.75;99658.25;5073096;28;20199;-68
2023/12/26 04:10:29;;;;;;;14.33;11.53;;;;;;;7.13;80.03;99671.75;5073286;28;20192;-69
2023/12/26 04:12:56;;;;;;;19.70;12.37;;;;;;;7.14;79.36;99673.44;5072902;28;20542;-68
2023/12/26 04:15:24;;;;;;;22.13;13.33;;;;;;;7.10;79.43;99672.94;5083495;28;20198;-68
2023/12/26 04:17:51;;;;;;;21.00;13.27;;;;;;;7.09;80.14;99681.00;5092977;28;20191;-68
2023/12/26 04:20:17;;;;;;;34.87;15.30;;;;;;;7.00;80.46;99666.19;5093276;28;20617;-68
2023/12/26 04:22:44;;;;;;;16.93;12.77;;;;;;;7.05;80.23;99672.63;5093248;28;20195;-69
2023/12/26 04:25:12;;;;;;;26.63;13.23;;;;;;;6.98;79.66;99665.56;5093229;28;20191;-67
2023/12/26 04:27:39;;;;;;;29.77;16.20;;;;;;;6.99;80.61;99675.13;5093071;28;20227;-68
2023/12/26 04:30:08;;;;;;;30.50;18.47;;;;;;;6.99;80.49;99672.47;5092744;28;20192;-68
2023/12/26 04:32:34;;;;;;;38.63;19.97;;;;;;;7.03;80.02;99679.06;5093296;28;20318;-68
2023/12/26 04:35:01;;;;;;;30.77;19.43;;;;;;;6.98;79.14;99684.03;5093276;28;20216;-68
2023/12/26 04:37:28;;;;;;;34.77;19.80;;;;;;;6.94;78.98;99693.28;5092969;28;20198;-68
2023/12/26 04:39:54;;;;;;;25.23;17.57;;;;;;;6.90;79.49;99694.59;5092121;28;20642;-70
2023/12/26 04:42:23;;;;;;;27.73;17.70;;;;;;;6.88;79.01;99704.50;5092509;28;20701;-67
2023/12/26 04:44:50;;;;;;;23.87;17.00;;;;;;;6.87;80.21;99697.56;5092705;28;20282;-67
2023/12/26 04:47:17;;;;;;;22.97;16.27;;;;;;;6.90;80.36;99691.97;5092391;28;20230;-67
2023/12/26 04:49:44;;;;;;;25.93;16.77;;;;;;;6.88;80.98;99688.66;5092737;28;20195;-71
2023/12/26 04:52:11;;;;;;;30.73;16.43;;;;;;;6.85;79.65;99694.25;5092572;28;20187;-68
2023/12/26 04:54:38;;;;;;;27.20;17.40;;;;;;;6.71;80.81;99697.59;5092454;28;20204;-68
2023/12/26 04:57:04;;;;;;;25.80;15.73;;;;;;;6.68;80.76;99698.75;5092521;28;20193;-69
2023/12/26 04:59:32;;;;;;;25.30;16.77;;;;;;;6.57;81.00;99693.00;5092697;28;20194;-68
2023/12/26 05:01:59;;;;;;;27.50;16.27;;;;;;;6.59;81.67;99693.66;5092399;28;20194;-67
2023/12/26 05:04:26;;;;;;;32.53;16.40;;;;;;;6.54;81.12;99701.25;5092161;28;20198;-68
2023/12/26 05:06:53;;;;;;;26.93;17.27;;;;;;;6.54;80.83;99695.97;5092209;28;20225;-68
2023/12/26 05:09:19;;;;;;;39.10;16.87;;;;;;;6.52;80.48;99687.38;5092207;28;20196;-68
2023/12/26 05:11:46;;;;;;;31.17;17.60;;;;;;;6.51;81.53;99691.84;5091680;28;20198;-68
2023/12/26 05:14:13;;;;;;;27.50;16.43;;;;;;;6.51;81.81;99699.75;5092031;28;20189;-68
2023/12/26 05:16:42;;;;;;;30.23;17.00;;;;;;;6.41;81.22;99706.19;5092078;28;20199;-68
2023/12/26 05:19:09;;;;;;;23.33;16.13;;;;;;;6.44;81.83;99709.31;5092224;28;20191;-69
2023/12/26 05:21:36;;;;;;;24.13;17.17;;;;;;;6.46;81.14;99709.16;5091636;28;20199;-68
2023/12/26 05:24:04;;;;;;;34.60;18.37;;;;;;;6.48;81.45;99705.34;5092484;28;20299;-68
2023/12/26 05:26:31;;;;;;;31.33;17.50;;;;;;;6.34;81.59;99705.19;5091839;28;20229;-70
2023/12/26 05:28:58;;;;;;;26.90;16.50;;;;;;;6.35;81.78;99706.81;5091848;28;20893;-68
2023/12/26 05:31:25;;;;;;;26.30;17.67;;;;;;;6.21;82.30;99725.94;5092306;28;20193;-68
2023/12/26 05:33:53;;;;;;;30.37;16.67;;;;;;;6.05;83.24;99720.63;5092148;28;20323;-69
2023/12/26 05:36:19;;;;;;;30.50;16.40;;;;;;;6.05;83.94;99725.91;5090219;28;20205;-70
2023/12/26 05:38:46;;;;;;;27.93;15.90;;;;;;;6.09;83.58;99729.88;5071657;28;20227;-69
2023/12/26 05:41:13;;;;;;;26.07;15.60;;;;;;;6.06;84.01;99738.09;5071418;28;20196;-69
2023/12/26 05:43:40;;;;;;;24.17;15.17;;;;;;;6.03;83.36;99733.97;5071447;28;20222;-68
2023/12/26 05:46:07;;;;;;;28.77;15.70;;;;;;;6.10;83.79;99737.63;5071434;28;20654;-68
2023/12/26 05:48:34;;;;;;;25.43;15.93;;;;;;;6.09;83.34;99740.44;5070964;28;20578;-69
2023/12/26 05:51:03;;;;;;;26.67;16.70;;;;;;;6.12;82.63;99748.03;5071339;28;20197;-68
2023/12/26 05:53:30;;;;;;;29.83;15.83;;;;;;;6.13;82.09;99747.03;5071592;28;20193;-68
2023/12/26 05:55:57;;;;;;;27.30;16.47;;;;;;;6.11;82.36;99743.72;5071257;28;20550;-68
2023/12/26 05:58:25;;;;;;;28.03;18.33;;;;;;;6.12;82.43;99734.84;5071494;28;20194;-68
2023/12/26 06:00:52;;;;;;;41.20;18.83;;;;;;;6.08;82.52;99746.69;5071286;28;20203;-69
2023/12/26 06:03:18;;;;;;;31.47;15.70;;;;;;;5.93;83.75;99761.47;5071004;28;20197;-68
2023/12/26 06:05:46;;;;;;;31.97;17.03;;;;;;;5.85;83.38;99761.44;5071041;28;20201;-70
2023/12/26 06:08:14;;;;;;;29.50;17.10;;;;;;;5.91;84.25;99766.09;5071080;28;20223;-70
2023/12/26 06:10:41;;;;;;;23.30;15.80;;;;;;;6.06;84.63;99775.84;5071043;28;20188;-69
2023/12/26 06:13:08;;;;;;;28.07;17.07;;;;;;;6.20;84.91;99771.78;5070961;28;20201;-69
2023/12/26 06:15:35;;;;;;;29.90;17.30;;;;;;;6.29;84.81;99776.88;5070945;28;20209;-69
2023/12/26 06:18:01;;;;;;;25.27;18.50;;;;;;;6.38;83.86;99769.81;5070770;28;20191;-68
2023/12/26 06:20:28;;;;;;;44.63;18.13;;;;;;;6.37;84.03;99774.25;5071129;28;20255;-69
2023/12/26 06:22:55;;;;;;;30.60;17.10;;;;;;;6.48;83.15;99781.03;5071729;28;20273;-68
2023/12/26 06:25:23;;;;;;;31.73;22.03;;;;;;;6.51;83.10;99786.00;5075104;28;20196;-69
2023/12/26 06:27:50;;;;;;;40.47;20.50;;;;;;;6.65;83.76;99788.00;5074677;28;20668;-69
2023/12/26 06:30:17;;;;;;;31.03;18.63;;;;;;;6.94;84.45;99780.41;5074658;28;20241;-69
2023/12/26 06:32:43;;;;;;;28.67;18.10;;;;;;;7.15;82.90;99792.09;5074770;28;20314;-70
2023/12/26 06:35:10;;;;;;;26.00;18.90;;;;;;;7.46;82.20;99789.56;5093858;28;20191;-68
2023/12/26 06:37:37;;;;;;;25.97;18.90;;;;;;;7.78;81.86;99794.75;5094999;28;20205;-66
2023/12/26 06:40:05;;;;;;;33.30;19.33;;;;;;;8.12;81.13;99798.75;5095149;28;20195;-65
2023/12/26 06:42:33;;;;;;;31.60;19.70;;;;;;;8.50;78.29;99808.47;5094549;28;20731;-67
2023/12/26 06:45:00;;;;;;;14.13;7.30;;;;;;;9.21;93.53;99797.50;5094030;28;20747;-64
2023/12/26 06:47:26;;;;;;;43.33;20.40;;;;;;;9.77;87.97;99818.16;5094730;28;20219;-66
2023/12/26 06:49:53;;;;;;;27.97;19.20;;;;;;;10.04;80.18;99828.09;5094594;28;20256;-75
2023/12/26 06:52:20;;;;;;;31.97;19.10;;;;;;;10.33;73.12;99841.38;5094314;28;20188;-70
2023/12/26 06:54:47;;;;;;;35.87;22.30;;;;;;;10.67;71.87;99841.56;5094227;28;20203;-75
2023/12/26 06:57:16;;;;;;;35.23;23.03;;;;;;;10.94;66.96;99848.78;5094453;28;20249;-79
2023/12/26 06:59:46;;;;;;;32.23;22.63;;;;;;;11.17;65.47;99848.59;5094811;28;20229;-80
2023/12/26 07:02:21;;;;;;;43.43;24.13;;;;;;;11.38;64.85;99848.56;5090554;28;20212;-74
2023/12/26 07:04:47;;;;;;;34.57;23.60;;;;;;;11.61;63.47;99842.06;5091869;28;20639;-75
2023/12/26 07:07:14;;;;;;;34.50;22.13;;;;;;;11.74;62.67;99850.13;5092692;28;20215;-75
2023/12/26 07:09:41;;;;;;;38.10;22.57;;;;;;;11.98;62.04;99844.34;5093472;28;20202;-76
2023/12/26 07:12:08;;;;;;;32.57;23.93;;;;;;;12.25;60.45;99839.97;5090453;28;20191;-72
2023/12/26 07:14:35;;;;;;;36.53;23.83;;;;;;;12.40;59.49;99822.81;5091315;28;20196;-73
2023/12/26 07:17:03;;;;;;;36.70;24.07;;;;;;;12.59;57.25;99846.06;5094029;28;20217;-76
2023/12/26 07:19:30;;;;;;;33.63;21.37;;;;;;;12.74;57.50;99848.56;5094559;28;20545;-74
2023/12/26 07:21:56;;;;;;;34.70;22.30;;;;;;;12.93;56.79;99845.09;5094514;28;20674;-71
2023/12/26 07:24:23;;;;;;;36.90;23.83;;;;;;;13.06;54.96;99840.63;5094725;28;20549;-75
2023/12/26 07:26:50;;;;;;;35.43;23.53;;;;;;;13.26;55.23;99843.31;5094225;28;20233;-76
2023/12/26 07:29:17;;;;;;;38.47;24.33;;;;;;;13.46;55.01;99836.97;5094408;28;20196;-74
2023/12/26 07:31:43;;;;;;;32.63;22.80;;;;;;;13.72;54.38;99839.59;5094257;28;20675;-73
2023/12/26 07:34:12;;;;;;;24.77;13.80;;;;;;;14.26;78.01;99812.59;5094422;28;20570;-64
2023/12/26 07:36:39;;;;;;;33.63;23.47;;;;;;;14.87;60.09;99835.91;5094391;28;20187;-65
2023/12/26 07:39:06;;;;;;;35.53;22.07;;;;;;;15.09;51.82;99831.88;5091344;28;20203;-63
2023/12/26 07:41:33;;;;;;;28.20;21.77;;;;;;;15.25;49.52;99826.00;5087781;28;20217;-66
2023/12/26 07:44:01;;;;;;;30.13;19.47;;;;;;;15.42;50.03;99837.81;5090837;28;20199;-64
2023/12/26 07:46:28;;;;;;;29.70;21.23;;;;;;;15.56;49.07;99833.19;5089567;28;20215;-65
2023/12/26 07:48:55;;;;;;;30.17;21.83;;;;;;;15.56;48.64;99815.25;5088997;28;20711;-66
2023/12/26 07:51:25;;;;;;;31.33;22.60;;;;;;;15.76;47.64;99828.44;5090350;28;20192;-63
2023/12/26 07:53:53;;;;;;;32.43;20.73;;;;;;;16.20;56.61;99813.97;5090684;28;20630;-64
2023/12/26 07:56:20;;;;;;;33.17;21.37;;;;;;;16.76;49.24;99831.41;5089872;28;20256;-63
2023/12/26 07:58:47;;;;;;;31.93;22.17;;;;;;;17.25;47.77;99841.00;5089618;28;20230;-72
2023/12/26 08:01:14;;;;;;;43.10;27.10;;;;;;;17.52;45.16;99837.69;5089179;28;20274;-70
2023/12/26 08:03:41;;;;;;;41.10;26.30;;;;;;;17.22;46.04;99846.84;5087698;28;20195;-71
2023/12/26 08:06:08;;;;;;;38.00;24.00;;;;;;;17.13;50.39;99835.63;5089448;28;20200;-69
2023/12/26 08:08:36;;;;;;;41.93;26.20;;;;;;;16.92;45.25;99824.59;5089335;28;20248;-69
2023/12/26 08:11:03;;;;;;;36.87;22.87;;;;;;;16.83;52.91;99826.78;5090336;28;20675;-72
2023/12/26 08:13:30;;;;;;;35.73;24.00;;;;;;;16.97;48.16;99838.97;5089369;28;20707;-69
2023/12/26 08:15:58;;;;;;;36.50;24.13;;;;;;;17.09;44.34;99836.28;5090276;28;20673;-71
2023/12/26 08:18:25;;;;;;;37.87;24.80;;;;;;;17.23;46.27;99837.75;5092497;28;20195;-71
2023/12/26 08:20:51;;;;;;;40.80;26.20;;;;;;;17.50;43.90;99839.81;5093518;28;20199;-72
2023/12/26 08:23:18;;;;;;;40.87;27.00;;;;;;;17.64;42.89;99826.97;5093814;28;20205;-69
2023/12/26 08:25:46;;;;;;;41.60;25.20;;;;;;;18.00;43.24;99837.44;5093702;28;20202;-72
2023/12/26 08:28:13;;;;;;;37.10;25.30;;;;;;;18.13;41.80;99839.91;5093173;28;20217;-72
2023/12/26 08:30:42;;;;;;;58.80;26.30;;;;;;;18.19;42.09;99837.09;5089290;28;20200;-73
2023/12/26 08:33:09;;;;;;;39.53;24.93;;;;;;;18.18;40.95;99848.09;5090393;28;20264;-72
2023/12/26 08:35:35;;;;;;;36.23;25.43;;;;;;;18.25;41.13;99848.78;5091264;28;20310;-73
2023/12/26 08:38:02;;;;;;;49.23;25.20;;;;;;;18.25;40.87;99840.72;5079517;28;20196;-74
2023/12/26 08:40:29;;;;;;;38.10;25.37;;;;;;;18.13;41.29;99831.84;5077664;28;20183;-75
2023/12/26 08:42:58;;;;;;;33.97;22.97;;;;;;;17.83;42.75;99833.84;5083512;28;20187;-73
2023/12/26 08:45:24;;;;;;;39.80;24.27;;;;;;;17.82;43.19;99837.59;5092245;28;20192;-76
2023/12/26 08:47:52;;;;;;;34.37;22.17;;;;;;;17.91;42.05;99831.63;5079276;28;20233;-72
2023/12/26 08:50:19;;;;;;;37.97;26.90;;;;;;;17.98;41.68;99836.88;5085225;28;20253;-73
2023/12/26 08:52:46;;;;;;;34.40;23.40;;;;;;;18.10;42.11;99830.47;5091838;28;20204;-72
2023/12/26 08:55:13;;;;;;;82.07;23.17;;;;;;;18.13;42.10;99829.16;5092622;28;20190;-72
2023/12/26 08:57:40;;;;;;;33.10;20.93;;;;;;;18.10;42.41;99824.25;5092608;28;20203;-72
2023/12/26 09:00:09;;;;;;;26.80;19.27;;;;;;;18.00;42.65;99815.94;5091695;28;20558;-72
2023/12/26 09:02:36;;;;;;;30.27;18.37;;;;;;;18.09;42.80;99822.63;5092156;28;20195;-72
2023/12/26 09:05:04;;;;;;;27.13;18.20;;;;;;;18.07;42.47;99814.78;5092323;28;20218;-72
2023/12/26 09:07:31;;;;;;;27.50;18.37;;;;;;;18.11;42.21;99815.13;5090881;28;20221;-72
2023/12/26 09:09:57;;;;;;;25.77;18.77;;;;;;;18.16;41.77;99799.09;5091220;28;20195;-72
2023/12/26 09:12:24;;;;;;;29.57;17.97;;;;;;;18.37;41.46;99814.63;5091283;28;20544;-72
2023/12/26 09:14:51;;;;;;;35.10;17.57;;;;;;;18.53;41.02;99803.09;5091866;28;20272;-72
2023/12/26 09:17:20;;;;;;;28.63;17.93;;;;;;;18.57;40.61;99798.88;5092250;28;20671;-71
2023/12/26 09:19:46;;;;;;;32.43;16.90;;;;;;;18.57;40.51;99793.50;5092251;28;20257;-72
2023/12/26 09:22:13;;;;;;;26.47;18.33;;;;;;;18.60;40.60;99793.03;5092451;28;20201;-73
2023/12/26 09:24:42;;;;;;;24.30;15.87;;;;;;;18.31;41.00;99788.66;5092046;28;20194;-72
2023/12/26 09:27:09;;;;;;;26.63;17.33;;;;;;;18.16;41.89;99782.97;5091859;28;20620;-73
2023/12/26 09:29:36;;;;;;;37.93;22.27;;;;;;;18.19;41.22;99785.19;5092177;28;20606;-72
2023/12/26 09:32:03;;;;;;;39.63;20.70;;;;;;;18.14;40.95;99777.03;5091767;28;20568;-73
2023/12/26 09:34:31;;;;;;;32.07;19.77;;;;;;;18.11;41.20;99777.47;5092239;28;20187;-72
2023/12/26 09:36:58;;;;;;;25.70;16.23;;;;;;;18.14;41.42;99771.63;5085014;28;20622;-72
2023/12/26 09:39:24;;;;;;;33.47;15.70;;;;;;;17.95;41.70;99762.09;5071829;28;20257;-72
2023/12/26 09:41:53;;;;;;;20.00;15.20;;;;;;;17.75;42.55;99767.03;5071514;28;20191;-71
2023/12/26 09:44:20;;;;;;;24.83;16.13;;;;;;;17.46;43.23;99757.22;5071717;28;20282;-71
2023/12/26 09:46:47;;;;;;;23.70;15.63;;;;;;;17.39;43.62;99761.88;5071593;28;20608;-71
2023/12/26 09:49:15;;;;;;;27.00;16.20;;;;;;;17.17;43.74;99752.75;5071310;28;20227;-71
2023/12/26 09:51:45;;;;;;;31.00;16.77;;;;;;;17.13;43.94;99756.94;5071763;28;20196;-70
2023/12/26 09:54:13;;;;;;;32.57;16.87;;;;;;;17.32;43.74;99755.81;5071185;28;20195;-71
2023/12/26 09:56:41;;;;;;;31.50;17.87;;;;;;;17.42;43.18;99745.31;5071572;28;20196;-71
2023/12/26 09:59:09;;;;;;;27.60;17.43;;;;;;;17.60;42.16;99742.53;5071468;28;20200;-71
2023/12/26 10:01:35;;;;;;;24.17;17.00;;;;;;;17.81;41.81;99731.16;5071680;28;20291;-71
2023/12/26 10:04:03;;;;;;;31.83;19.40;;;;;;;18.00;40.99;99732.63;5071493;28;20188;-72
2023/12/26 10:06:30;;;;;;;29.80;17.67;;;;;;;18.22;40.31;99726.34;5071337;28;20199;-72
2023/12/26 10:08:58;;;;;;;31.97;18.83;;;;;;;18.44;40.01;99723.84;5071077;28;20596;-72
2023/12/26 10:11:26;;;;;;;31.70;18.03;;;;;;;18.63;39.02;99728.78;5071091;28;20572;-72
2023/12/26 10:13:54;;;;;;;27.10;18.07;;;;;;;18.80;38.81;99718.03;5071107;28;20733;-73
2023/12/26 10:16:22;;;;;;;27.20;17.07;;;;;;;18.83;38.11;99717.56;5071498;28;20267;-73
2023/12/26 10:18:50;;;;;;;29.70;16.83;;;;;;;18.91;37.91;99714.47;5077498;28;20207;-73
2023/12/26 10:21:17;;;;;;;33.80;19.73;;;;;;;18.99;37.93;99716.75;5088168;28;20248;-74
2023/12/26 10:23:43;;;;;;;27.97;18.43;;;;;;;18.96;37.45;99701.91;5089196;28;20188;-74
2023/12/26 10:26:12;;;;;;;30.23;17.33;;;;;;;19.13;36.48;99702.72;5089477;28;20202;-73
2023/12/26 10:28:39;;;;;;;27.20;16.33;;;;;;;19.12;36.90;99695.69;5089699;28;20220;-74
2023/12/26 10:31:13;;;;;;;29.10;16.17;;;;;;;19.17;36.73;99692.25;5089463;28;20197;-74
2023/12/26 10:33:41;;;;;;;26.30;15.93;;;;;;;19.15;36.71;99689.00;5089320;28;20262;-74
2023/12/26 10:36:10;;;;;;;29.33;16.93;;;;;;;19.03;37.29;99688.28;5090150;28;20194;-73
2023/12/26 10:38:38;;;;;;;23.47;16.80;;;;;;;18.93;37.14;99682.72;5070087;28;20203;-73
2023/12/26 10:41:08;;;;;;;34.90;17.57;;;;;;;18.85;37.31;99669.66;5070933;28;20236;-73
2023/12/26 10:43:39;;;;;;;23.17;16.17;;;;;;;18.76;37.57;99663.06;5070779;28;20252;-73
2023/12/26 10:46:08;;;;;;;30.43;18.07;;;;;;;18.62;37.68;99672.53;5069756;28;20222;-73
2023/12/26 10:48:35;;;;;;;26.63;16.40;;;;;;;18.53;37.53;99666.72;5070183;28;20224;-73
2023/12/26 10:51:03;;;;;;;26.97;16.93;;;;;;;18.58;38.28;99660.63;5069470;28;20207;-73
2023/12/26 10:53:37;;;;;;;32.43;17.60;;;;;;;18.62;37.88;99653.69;5070030;28;20192;-73
2023/12/26 10:56:07;;;;;;;32.63;18.00;;;;;;;18.73;37.80;99658.16;5070164;28;20222;-73
2023/12/26 10:58:36;;;;;;;27.37;18.80;;;;;;;18.84;37.43;99650.03;5069920;28;20226;-74
2023/12/26 13:52:54;;;;;;;15.67;11.07;;;;;;;17.44;39.57;99528.38;5070757;28;20171;-72
2023/12/26 13:55:57;;;;;;;13.83;10.63;;;;;;;17.38;39.66;99523.91;5070892;28;20199;-71
2023/12/26 13:59:02;;;;;;;19.57;13.60;;;;;;;17.34;40.31;99522.75;5070579;28;20195;-70
2023/12/26 14:02:06;;;;;;;17.77;12.27;;;;;;;17.30;40.25;99522.44;5070295;28;20200;-71
2023/12/26 14:05:10;;;;;;;35.50;12.13;;;;;;;17.27;40.72;99528.28;5070405;28;20267;-71
2023/12/26 14:08:16;;;;;;;29.80;11.87;;;;;;;17.23;41.23;99531.69;5070907;28;20201;-70
2023/12/26 14:11:19;;;;;;;23.33;11.50;;;;;;;17.15;41.43;99537.44;5070850;28;20240;-71
2023/12/26 14:14:23;;;;;;;21.57;11.43;;;;;;;17.07;41.37;99527.84;5070621;28;20196;-70
2023/12/26 14:17:27;;;;;;;23.73;11.77;;;;;;;16.99;41.49;99524.75;5071286;28;20195;-70
2023/12/26 14:20:31;;;;;;;22.73;10.57;;;;;;;16.89;41.95;99519.13;5071474;28;20267;-70
2023/12/26 14:23:35;;;;;;;23.83;11.93;;;;;;;16.80;42.14;99525.91;5070528;28;20659;-68